sensor_id;sensor_type;location;lat;lon;timestamp;pressure;altitude;pressure_sealevel;temperature;humidity
60433;BME280;46286;48.098;11.590;2023-03-26T00:01:29;95059.75;;;6.41;100.00
60433;BME280;46286;48.098;11.590;2023-03-26T00:03:58;95061.59;;;6.41;100.00
60433;BME280;46286;48.098;11.590;2023-03-26T00:06:29;95052.94;;;6.35;100.00
60433;BME280;46286;48.098;11.590;2023-03-26T00:08:56;95060.00;;;6.40;100.00
60433;BME280;46286;48.098;11.590;2023-03-26T00:11:25;95050.34;;;6.46;100.00
60433;BME280;46286;48.098;11.590;2023-03-26T00:13:51;95053.53;;;6.53;100.00
60433;BME280;46286;48.098;11.590;2023-03-26T00:16:21;95051.44;;;6.55;100.00
60433;BME280;46286;48.098;11.590;2023-03-26T00:18:48;95057.22;;;6.57;100.00
60433;BME280;46286;48.098;11.590;2023-03-26T00:21:18;95052.50;;;6.59;100.00
60433;BME280;46286;48.098;11.590;2023-03-26T00:23:50;95054.09;;;6.60;100.00
60433;BME280;46286;48.098;11.590;2023-03-26T00:26:18;95044.63;;;6.49;100.00
60433;BME280;46286;48.098;11.590;2023-03-26T00:28:43;95044.59;;;6.44;100.00
60433;BME280;46286;48.098;11.590;2023-03-26T00:31:12;95048.25;;;6.43;100.00
60433;BME280;46286;48.098;11.590;2023-03-26T00:33:38;95039.31;;;6.33;100.00
60433;BME280;46286;48.098;11.590;2023-03-26T00:36:07;95040.13;;;6.34;100.00
60433;BME280;46286;48.098;11.590;2023-03-26T00:38:35;95043.97;;;6.26;100.00
60433;BME280;46286;48.098;11.590;2023-03-26T00:41:05;95037.72;;;6.27;100.00
60433;BME280;46286;48.098;11.590;2023-03-26T00:43:34;95031.47;;;6.28;100.00
60433;BME280;46286;48.098;11.590;2023-03-26T00:46:00;95038.75;;;6.26;100.00
60433;BME280;46286;48.098;11.590;2023-03-26T00:48:27;95032.50;;;6.27;100.00
60433;BME280;46286;48.098;11.590;2023-03-26T00:50:55;95036.13;;;6.21;100.00
60433;BME280;46286;48.098;11.590;2023-03-26T00:53:20;95026.66;;;6.15;100.00
60433;BME280;46286;48.098;11.590;2023-03-26T00:55:46;95027.72;;;6.14;100.00
60433;BME280;46286;48.098;11.590;2023-03-26T00:58:13;95029.25;;;6.10;100.00
60433;BME280;46286;48.098;11.590;2023-03-26T01:00:59;95028.72;;;6.07;100.00
60433;BME280;46286;48.098;11.590;2023-03-26T01:03:26;95025.06;;;6.03;100.00
60433;BME280;46286;48.098;11.590;2023-03-26T01:06:02;95030.75;;;6.00;100.00
60433;BME280;46286;48.098;11.590;2023-03-26T01:08:38;95033.91;;;6.02;100.00
60433;BME280;46286;48.098;11.590;2023-03-26T01:11:09;95024.75;;;6.00;100.00
60433;BME280;46286;48.098;11.590;2023-03-26T01:13:40;95023.38;;;5.92;100.00
60433;BME280;46286;48.098;11.590;2023-03-26T01:16:13;95033.25;;;5.85;100.00
60433;BME280;46286;48.098;11.590;2023-03-26T01:18:45;95030.59;;;5.80;100.00
60433;BME280;46286;48.098;11.590;2023-03-26T01:21:11;95025.38;;;5.80;100.00
60433;BME280;46286;48.098;11.590;2023-03-26T01:23:45;95031.13;;;5.82;100.00
60433;BME280;46286;48.098;11.590;2023-03-26T01:32:02;95022.66;;;5.64;100.00
60433;BME280;46286;48.098;11.590;2023-03-26T01:34:54;95021.66;;;5.70;100.00
60433;BME280;46286;48.098;11.590;2023-03-26T01:37:35;95014.88;;;5.69;100.00
60433;BME280;46286;48.098;11.590;2023-03-26T01:40:08;95016.44;;;5.70;100.00
60433;BME280;46286;48.098;11.590;2023-03-26T01:42:47;95013.28;;;5.68;100.00
60433;BME280;46286;48.098;11.590;2023-03-26T01:45:20;95005.44;;;5.68;100.00
60433;BME280;46286;48.098;11.590;2023-03-26T01:47:48;95013.84;;;5.76;100.00
60433;BME280;46286;48.098;11.590;2023-03-26T01:50:14;95013.00;;;5.65;100.00
60433;BME280;46286;48.098;11.590;2023-03-26T01:52:39;95000.41;;;5.57;100.00
60433;BME280;46286;48.098;11.590;2023-03-26T01:55:06;94999.13;;;5.59;100.00
60433;BME280;46286;48.098;11.590;2023-03-26T01:58:09;95005.44;;;5.63;100.00
60433;BME280;46286;48.098;11.590;2023-03-26T02:00:40;95003.28;;;5.55;100.00
60433;BME280;46286;48.098;11.590;2023-03-26T02:03:21;94996.97;;;5.51;100.00
60433;BME280;46286;48.098;11.590;2023-03-26T02:05:57;94987.53;;;5.45;100.00
60433;BME280;46286;48.098;11.590;2023-03-26T02:08:37;94989.66;;;5.53;100.00
60433;BME280;46286;48.098;11.590;2023-03-26T02:11:10;94981.25;;;5.41;100.00
60433;BME280;46286;48.098;11.590;2023-03-26T02:13:42;94980.66;;;5.33;100.00
60433;BME280;46286;48.098;11.590;2023-03-26T02:16:10;94982.09;;;5.51;100.00
60433;BME280;46286;48.098;11.590;2023-03-26T02:18:39;94971.66;;;5.51;100.00
60433;BME280;46286;48.098;11.590;2023-03-26T02:21:10;94976.66;;;5.58;100.00
60433;BME280;46286;48.098;11.590;2023-03-26T02:23:38;94968.38;;;5.66;100.00
60433;BME280;46286;48.098;11.590;2023-03-26T02:26:09;94979.38;;;5.73;100.00
60433;BME280;46286;48.098;11.590;2023-03-26T02:28:36;94975.66;;;5.64;100.00
60433;BME280;46286;48.098;11.590;2023-03-26T02:31:02;94975.25;;;5.78;100.00
60433;BME280;46286;48.098;11.590;2023-03-26T02:33:29;94971.06;;;5.77;100.00
60433;BME280;46286;48.098;11.590;2023-03-26T02:35:55;94965.78;;;5.71;100.00
60433;BME280;46286;48.098;11.590;2023-03-26T02:38:27;94970.94;;;5.61;100.00
60433;BME280;46286;48.098;11.590;2023-03-26T02:40:53;94966.59;;;5.72;100.00
60433;BME280;46286;48.098;11.590;2023-03-26T02:43:21;94967.38;;;5.72;100.00
60433;BME280;46286;48.098;11.590;2023-03-26T02:45:46;94956.88;;;5.67;100.00
60433;BME280;46286;48.098;11.590;2023-03-26T02:48:12;94957.38;;;5.64;100.00
60433;BME280;46286;48.098;11.590;2023-03-26T02:50:39;94953.78;;;5.70;100.00
60433;BME280;46286;48.098;11.590;2023-03-26T02:53:06;94946.47;;;5.72;100.00
60433;BME280;46286;48.098;11.590;2023-03-26T02:55:32;94951.19;;;5.76;100.00
60433;BME280;46286;48.098;11.590;2023-03-26T02:57:58;94939.25;;;5.85;100.00
60433;BME280;46286;48.098;11.590;2023-03-26T03:00:24;94937.19;;;5.92;100.00
60433;BME280;46286;48.098;11.590;2023-03-26T03:02:51;94941.31;;;5.78;100.00
60433;BME280;46286;48.098;11.590;2023-03-26T03:05:17;94937.06;;;5.71;100.00
60433;BME280;46286;48.098;11.590;2023-03-26T03:07:44;94936.00;;;5.67;100.00
60433;BME280;46286;48.098;11.590;2023-03-26T03:10:12;94926.06;;;5.64;100.00
60433;BME280;46286;48.098;11.590;2023-03-26T03:12:39;94918.72;;;5.61;100.00
60433;BME280;46286;48.098;11.590;2023-03-26T03:15:06;94918.22;;;5.64;100.00
60433;BME280;46286;48.098;11.590;2023-03-26T03:17:32;94909.31;;;5.55;100.00
60433;BME280;46286;48.098;11.590;2023-03-26T03:19:58;94907.72;;;5.54;100.00
60433;BME280;46286;48.098;11.590;2023-03-26T03:22:23;94894.22;;;5.62;100.00
60433;BME280;46286;48.098;11.590;2023-03-26T03:24:49;94896.28;;;5.60;100.00
60433;BME280;46286;48.098;11.590;2023-03-26T03:27:17;94893.13;;;5.58;100.00
60433;BME280;46286;48.098;11.590;2023-03-26T03:29:44;94885.06;;;5.60;100.00
60433;BME280;46286;48.098;11.590;2023-03-26T03:32:11;94891.84;;;5.61;100.00
60433;BME280;46286;48.098;11.590;2023-03-26T03:34:36;94887.16;;;5.58;100.00
60433;BME280;46286;48.098;11.590;2023-03-26T03:37:04;94886.59;;;5.50;100.00
60433;BME280;46286;48.098;11.590;2023-03-26T03:39:30;94888.88;;;5.42;100.00
60433;BME280;46286;48.098;11.590;2023-03-26T03:41:55;94883.66;;;5.42;100.00
60433;BME280;46286;48.098;11.590;2023-03-26T03:44:21;94890.19;;;5.44;100.00
60433;BME280;46286;48.098;11.590;2023-03-26T03:46:47;94890.91;;;5.34;100.00
60433;BME280;46286;48.098;11.590;2023-03-26T03:49:13;94876.81;;;5.30;100.00
60433;BME280;46286;48.098;11.590;2023-03-26T03:51:39;94881.66;;;5.16;100.00
60433;BME280;46286;48.098;11.590;2023-03-26T03:54:05;94884.59;;;5.25;100.00
60433;BME280;46286;48.098;11.590;2023-03-26T03:56:31;94879.72;;;5.01;100.00
60433;BME280;46286;48.098;11.590;2023-03-26T03:58:56;94885.91;;;4.95;100.00
60433;BME280;46286;48.098;11.590;2023-03-26T04:01:23;94878.28;;;5.16;100.00
60433;BME280;46286;48.098;11.590;2023-03-26T04:03:48;94877.13;;;5.07;100.00
60433;BME280;46286;48.098;11.590;2023-03-26T04:06:14;94873.97;;;4.99;100.00
60433;BME280;46286;48.098;11.590;2023-03-26T04:08:44;94870.34;;;5.06;100.00
60433;BME280;46286;48.098;11.590;2023-03-26T04:11:11;94859.38;;;5.03;100.00
60433;BME280;46286;48.098;11.590;2023-03-26T04:13:37;94852.78;;;4.91;100.00
60433;BME280;46286;48.098;11.590;2023-03-26T04:16:03;94858.69;;;4.81;100.00
60433;BME280;46286;48.098;11.590;2023-03-26T04:18:28;94855.00;;;4.77;100.00
60433;BME280;46286;48.098;11.590;2023-03-26T04:20:56;94857.59;;;4.77;100.00
60433;BME280;46286;48.098;11.590;2023-03-26T04:23:26;94851.34;;;4.73;100.00
60433;BME280;46286;48.098;11.590;2023-03-26T04:25:54;94848.88;;;4.61;100.00
60433;BME280;46286;48.098;11.590;2023-03-26T04:28:33;94848.59;;;4.57;100.00
60433;BME280;46286;48.098;11.590;2023-03-26T04:31:01;94841.38;;;4.69;100.00
60433;BME280;46286;48.098;11.590;2023-03-26T04:33:32;94844.13;;;4.85;100.00
60433;BME280;46286;48.098;11.590;2023-03-26T04:35:59;94843.03;;;4.81;100.00
60433;BME280;46286;48.098;11.590;2023-03-26T04:38:29;94846.28;;;4.93;100.00
60433;BME280;46286;48.098;11.590;2023-03-26T04:40:59;94840.50;;;4.86;100.00
60433;BME280;46286;48.098;11.590;2023-03-26T04:43:24;94835.28;;;4.86;100.00
60433;BME280;46286;48.098;11.590;2023-03-26T04:45:51;94833.69;;;4.85;100.00
60433;BME280;46286;48.098;11.590;2023-03-26T04:48:17;94828.41;;;4.75;100.00
60433;BME280;46286;48.098;11.590;2023-03-26T04:50:45;94823.19;;;4.75;100.00
60433;BME280;46286;48.098;11.590;2023-03-26T04:53:14;94815.91;;;4.77;100.00
60433;BME280;46286;48.098;11.590;2023-03-26T04:55:59;94816.41;;;4.74;100.00
60433;BME280;46286;48.098;11.590;2023-03-26T04:58:27;94811.63;;;4.65;100.00
60433;BME280;46286;48.098;11.590;2023-03-26T05:00:58;94818.06;;;4.85;100.00
60433;BME280;46286;48.098;11.590;2023-03-26T05:03:26;94811.81;;;4.86;100.00
60433;BME280;46286;48.098;11.590;2023-03-26T05:05:57;94806.56;;;4.81;100.00
60433;BME280;46286;48.098;11.590;2023-03-26T05:08:23;94811.25;;;4.84;100.00
60433;BME280;46286;48.098;11.590;2023-03-26T05:10:51;94802.16;;;4.86;100.00
60433;BME280;46286;48.098;11.590;2023-03-26T05:13:16;94796.69;;;4.88;100.00
60433;BME280;46286;48.098;11.590;2023-03-26T05:15:42;94792.50;;;4.82;100.00
60433;BME280;46286;48.098;11.590;2023-03-26T05:18:07;94785.75;;;4.91;100.00
60433;BME280;46286;48.098;11.590;2023-03-26T05:20:33;94781.84;;;4.89;100.00
60433;BME280;46286;48.098;11.590;2023-03-26T05:22:59;94781.56;;;4.85;100.00
60433;BME280;46286;48.098;11.590;2023-03-26T05:25:25;94782.44;;;4.96;100.00
60433;BME280;46286;48.098;11.590;2023-03-26T05:27:50;94775.63;;;4.95;100.00
60433;BME280;46286;48.098;11.590;2023-03-26T05:30:18;94774.91;;;5.05;100.00
60433;BME280;46286;48.098;11.590;2023-03-26T05:32:45;94777.53;;;5.05;100.00
60433;BME280;46286;48.098;11.590;2023-03-26T05:35:13;94784.63;;;5.19;100.00
60433;BME280;46286;48.098;11.590;2023-03-26T05:37:41;94779.16;;;5.16;100.00
60433;BME280;46286;48.098;11.590;2023-03-26T05:40:09;94784.16;;;5.28;100.00
60433;BME280;46286;48.098;11.590;2023-03-26T05:42:37;94778.72;;;5.34;100.00
60433;BME280;46286;48.098;11.590;2023-03-26T05:45:08;94780.78;;;5.32;100.00
60433;BME280;46286;48.098;11.590;2023-03-26T05:47:34;94775.66;;;5.53;100.00
60433;BME280;46286;48.098;11.590;2023-03-26T05:50:00;94764.19;;;5.49;100.00
60433;BME280;46286;48.098;11.590;2023-03-26T05:52:26;94767.31;;;5.51;100.00
60433;BME280;46286;48.098;11.590;2023-03-26T05:54:51;94766.03;;;5.59;100.00
60433;BME280;46286;48.098;11.590;2023-03-26T05:57:17;94756.91;;;5.61;100.00
60433;BME280;46286;48.098;11.590;2023-03-26T05:59:43;94744.91;;;5.65;100.00
60433;BME280;46286;48.098;11.590;2023-03-26T06:02:09;94742.28;;;5.65;100.00
60433;BME280;46286;48.098;11.590;2023-03-26T06:04:35;94740.75;;;5.75;100.00
60433;BME280;46286;48.098;11.590;2023-03-26T06:07:05;94729.28;;;5.81;100.00
60433;BME280;46286;48.098;11.590;2023-03-26T06:09:38;94731.41;;;5.89;100.00
60433;BME280;46286;48.098;11.590;2023-03-26T06:12:06;94723.06;;;5.92;100.00
60433;BME280;46286;48.098;11.590;2023-03-26T06:14:32;94716.75;;;5.93;100.00
60433;BME280;46286;48.098;11.590;2023-03-26T06:16:57;94718.06;;;5.96;100.00
60433;BME280;46286;48.098;11.590;2023-03-26T06:19:23;94719.44;;;6.09;100.00
60433;BME280;46286;48.098;11.590;2023-03-26T06:21:48;94723.09;;;6.02;100.00
60433;BME280;46286;48.098;11.590;2023-03-26T06:24:14;94716.84;;;6.03;100.00
60433;BME280;46286;48.098;11.590;2023-03-26T06:26:41;94713.69;;;6.01;100.00
60433;BME280;46286;48.098;11.590;2023-03-26T06:29:07;94708.44;;;6.01;100.00
60433;BME280;46286;48.098;11.590;2023-03-26T06:31:33;94716.84;;;6.03;100.00
60433;BME280;46286;48.098;11.590;2023-03-26T06:33:59;94711.59;;;6.19;100.00
60433;BME280;46286;48.098;11.590;2023-03-26T06:36:24;94710.56;;;6.20;100.00
60433;BME280;46286;48.098;11.590;2023-03-26T06:38:50;94706.91;;;6.31;100.00
60433;BME280;46286;48.098;11.590;2023-03-26T06:41:15;94708.97;;;6.29;100.00
60433;BME280;46286;48.098;11.590;2023-03-26T06:43:41;94683.41;;;6.21;100.00
60433;BME280;46286;48.098;11.590;2023-03-26T06:46:09;94693.31;;;6.29;100.00
60433;BME280;46286;48.098;11.590;2023-03-26T06:48:35;94695.94;;;6.24;100.00
60433;BME280;46286;48.098;11.590;2023-03-26T06:51:01;94704.81;;;6.28;100.00
60433;BME280;46286;48.098;11.590;2023-03-26T06:53:26;94693.06;;;6.36;100.00
60433;BME280;46286;48.098;11.590;2023-03-26T06:55:52;94702.22;;;6.38;100.00
60433;BME280;46286;48.098;11.590;2023-03-26T06:58:20;94701.69;;;6.41;100.00
60433;BME280;46286;48.098;11.590;2023-03-26T07:00:46;94700.09;;;6.30;100.00
60433;BME280;46286;48.098;11.590;2023-03-26T07:03:11;94693.31;;;6.34;100.00
60433;BME280;46286;48.098;11.590;2023-03-26T07:05:39;94688.59;;;6.36;100.00
60433;BME280;46286;48.098;11.590;2023-03-26T07:08:05;94688.59;;;6.36;100.00
60433;BME280;46286;48.098;11.590;2023-03-26T07:10:31;94682.88;;;6.39;100.00
60433;BME280;46286;48.098;11.590;2023-03-26T07:12:56;94686.00;;;6.31;100.00
60433;BME280;46286;48.098;11.590;2023-03-26T07:15:22;94680.78;;;6.26;100.00
60433;BME280;46286;48.098;11.590;2023-03-26T07:17:48;94667.47;;;6.22;100.00
60433;BME280;46286;48.098;11.590;2023-03-26T07:20:13;94677.13;;;6.12;100.00
60433;BME280;46286;48.098;11.590;2023-03-26T07:22:40;94670.84;;;6.07;100.00
60433;BME280;46286;48.098;11.590;2023-03-26T07:25:06;94676.06;;;6.07;100.00
60433;BME280;46286;48.098;11.590;2023-03-26T07:30:27;94654.63;;;5.85;100.00
60433;BME280;46286;48.098;11.590;2023-03-26T07:33:05;94640.00;;;5.89;100.00
60433;BME280;46286;48.098;11.590;2023-03-26T07:35:45;94617.78;;;5.81;100.00
60433;BME280;46286;48.098;11.590;2023-03-26T07:38:25;94611.53;;;5.82;100.00
60433;BME280;46286;48.098;11.590;2023-03-26T07:46:27;94586.47;;;5.86;100.00
60433;BME280;46286;48.098;11.590;2023-03-26T07:48:54;94582.78;;;5.87;100.00
60433;BME280;46286;48.098;11.590;2023-03-26T07:51:23;94581.50;;;5.69;100.00
60433;BME280;46286;48.098;11.590;2023-03-26T07:53:49;94578.38;;;5.88;100.00
60433;BME280;46286;48.098;11.590;2023-03-26T07:56:15;94572.63;;;5.91;100.00
60433;BME280;46286;48.098;11.590;2023-03-26T07:59:22;94568.19;;;5.92;100.00
60433;BME280;46286;48.098;11.590;2023-03-26T08:10:02;94548.59;;;6.20;100.00
60433;BME280;46286;48.098;11.590;2023-03-26T08:15:22;94537.28;;;6.35;100.00
60433;BME280;46286;48.098;11.590;2023-03-26T08:17:53;94527.06;;;6.44;100.00
60433;BME280;46286;48.098;11.590;2023-03-26T08:20:46;94515.06;;;6.43;100.00
60433;BME280;46286;48.098;11.590;2023-03-26T08:25:55;94520.81;;;6.50;100.00
60433;BME280;46286;48.098;11.590;2023-03-26T08:31:32;94514.50;;;6.56;100.00
60433;BME280;46286;48.098;11.590;2023-03-26T08:33:58;94510.81;;;6.62;100.00
60433;BME280;46286;48.098;11.590;2023-03-26T08:36:24;94513.97;;;6.59;100.00
60433;BME280;46286;48.098;11.590;2023-03-26T08:38:51;94517.09;;;6.61;100.00
60433;BME280;46286;48.098;11.590;2023-03-26T08:55:55;94516.50;;;6.74;100.00
60433;BME280;46286;48.098;11.590;2023-03-26T08:58:12;94511.28;;;6.74;100.00
60433;BME280;46286;48.098;11.590;2023-03-26T09:04:07;94505.56;;;6.62;100.00
60433;BME280;46286;48.098;11.590;2023-03-26T09:06:48;94510.19;;;6.81;100.00
60433;BME280;46286;48.098;11.590;2023-03-26T09:14:42;94498.22;;;6.69;100.00
60433;BME280;46286;48.098;11.590;2023-03-26T09:35:11;94463.09;;;6.86;100.00
60433;BME280;46286;48.098;11.590;2023-03-26T09:40:18;94477.34;;;6.59;100.00
60433;BME280;46286;48.098;11.590;2023-03-26T09:43:09;94479.03;;;6.39;100.00
60433;BME280;46286;48.098;11.590;2023-03-26T09:45:49;94481.66;;;6.34;100.00
60433;BME280;46286;48.098;11.590;2023-03-26T09:48:49;94480.88;;;6.34;100.00
60433;BME280;46286;48.098;11.590;2023-03-26T09:59:36;94475.34;;;6.40;100.00
60433;BME280;46286;48.098;11.590;2023-03-26T10:10:37;94450.69;;;6.62;100.00
60433;BME280;46286;48.098;11.590;2023-03-26T10:18:23;94428.69;;;6.68;100.00
60433;BME280;46286;48.098;11.590;2023-03-26T10:20:58;94428.03;;;6.47;100.00
60433;BME280;46286;48.098;11.590;2023-03-26T10:28:54;94442.38;;;6.50;100.00
60433;BME280;46286;48.098;11.590;2023-03-26T10:31:43;94441.34;;;6.46;100.00
60433;BME280;46286;48.098;11.590;2023-03-26T10:34:48;94439.72;;;6.60;100.00
60433;BME280;46286;48.098;11.590;2023-03-26T10:37:40;94453.56;;;6.61;100.00
60433;BME280;46286;48.098;11.590;2023-03-26T10:40:24;94451.75;;;6.56;100.00
60433;BME280;46286;48.098;11.590;2023-03-26T10:43:13;94460.16;;;6.48;100.00
60433;BME280;46286;48.098;11.590;2023-03-26T10:48:54;94477.72;;;6.32;100.00
60433;BME280;46286;48.098;11.590;2023-03-26T10:54:14;94468.03;;;6.37;100.00
60433;BME280;46286;48.098;11.590;2023-03-26T10:56:44;94454.69;;;6.44;100.00
60433;BME280;46286;48.098;11.590;2023-03-26T10:59:12;94453.44;;;6.31;100.00
60433;BME280;46286;48.098;11.590;2023-03-26T11:07:10;94426.34;;;6.12;100.00
60433;BME280;46286;48.098;11.590;2023-03-26T11:09:50;94421.91;;;6.12;100.00
60433;BME280;46286;48.098;11.590;2023-03-26T11:23:21;94406.44;;;6.26;100.00
60433;BME280;46286;48.098;11.590;2023-03-26T11:26:11;94412.25;;;6.13;100.00
60433;BME280;46286;48.098;11.590;2023-03-26T11:31:39;94411.38;;;6.28;100.00
60433;BME280;46286;48.098;11.590;2023-03-26T11:34:15;94414.75;;;6.38;100.00
60433;BME280;46286;48.098;11.590;2023-03-26T11:36:47;94419.00;;;6.24;100.00
60433;BME280;46286;48.098;11.590;2023-03-26T11:39:21;94425.50;;;6.27;100.00
60433;BME280;46286;48.098;11.590;2023-03-26T11:41:48;94423.44;;;6.23;100.00
60433;BME280;46286;48.098;11.590;2023-03-26T11:44:24;94421.66;;;6.14;100.00
60433;BME280;46286;48.098;11.590;2023-03-26T11:46:56;94411.75;;;6.11;100.00
60433;BME280;46286;48.098;11.590;2023-03-26T11:49:25;94422.19;;;6.05;100.00
60433;BME280;46286;48.098;11.590;2023-03-26T11:51:52;94411.75;;;6.05;100.00
60433;BME280;46286;48.098;11.590;2023-03-26T11:54:18;94413.31;;;6.06;100.00
60433;BME280;46286;48.098;11.590;2023-03-26T11:59:41;94415.13;;;6.11;100.00
60433;BME280;46286;48.098;11.590;2023-03-26T12:04:42;94401.78;;;6.13;100.00
60433;BME280;46286;48.098;11.590;2023-03-26T12:08:03;94420.34;;;6.11;100.00
60433;BME280;46286;48.098;11.590;2023-03-26T12:10:05;94392.34;;;6.22;100.00
60433;BME280;46286;48.098;11.590;2023-03-26T12:12:36;94381.31;;;6.30;100.00
60433;BME280;46286;48.098;11.590;2023-03-26T12:15:04;94389.59;;;6.48;100.00
60433;BME280;46286;48.098;11.590;2023-03-26T12:17:34;94376.97;;;6.65;100.00
60433;BME280;46286;48.098;11.590;2023-03-26T12:20:00;94383.16;;;6.74;100.00
60433;BME280;46286;48.098;11.590;2023-03-26T12:22:37;94388.59;;;6.83;100.00
60433;BME280;46286;48.098;11.590;2023-03-26T12:25:18;94380.31;;;7.05;100.00
60433;BME280;46286;48.098;11.590;2023-03-26T12:28:00;94381.41;;;7.58;100.00
60433;BME280;46286;48.098;11.590;2023-03-26T12:30:30;94373.50;;;7.63;100.00
60433;BME280;46286;48.098;11.590;2023-03-26T12:33:23;94378.72;;;7.39;100.00
60433;BME280;46286;48.098;11.590;2023-03-26T12:35:55;94371.84;;;7.19;100.00
60433;BME280;46286;48.098;11.590;2023-03-26T12:43:49;94369.38;;;7.33;100.00
60433;BME280;46286;48.098;11.590;2023-03-26T12:46:32;94365.13;;;7.37;100.00
60433;BME280;46286;48.098;11.590;2023-03-26T12:49:01;94379.38;;;7.50;100.00
60433;BME280;46286;48.098;11.590;2023-03-26T12:54:32;94373.78;;;7.61;100.00
60433;BME280;46286;48.098;11.590;2023-03-26T12:57:23;94353.34;;;7.63;100.00
60433;BME280;46286;48.098;11.590;2023-03-26T13:11:28;94351.13;;;7.76;100.00
60433;BME280;46286;48.098;11.590;2023-03-26T13:14:10;94341.69;;;7.75;100.00
60433;BME280;46286;48.098;11.590;2023-03-26T13:29:54;94341.56;;;7.85;100.00
60433;BME280;46286;48.098;11.590;2023-03-26T13:35:11;94340.72;;;7.90;100.00
60433;BME280;46286;48.098;11.590;2023-03-26T13:38:14;94347.09;;;7.84;100.00
60433;BME280;46286;48.098;11.590;2023-03-26T13:41:21;94351.31;;;7.79;100.00
60433;BME280;46286;48.098;11.590;2023-03-26T13:48:53;94326.56;;;7.91;100.00
60433;BME280;46286;48.098;11.590;2023-03-26T13:51:34;94322.03;;;7.77;100.00
60433;BME280;46286;48.098;11.590;2023-03-26T13:54:11;94322.59;;;7.74;100.00
60433;BME280;46286;48.098;11.590;2023-03-26T13:56:42;94317.84;;;7.76;100.00
60433;BME280;46286;48.098;11.590;2023-03-26T13:59:17;94304.28;;;7.93;100.00
60433;BME280;46286;48.098;11.590;2023-03-26T14:01:55;94299.03;;;7.93;100.00
60433;BME280;46286;48.098;11.590;2023-03-26T14:09:52;94292.75;;;7.94;100.00
60433;BME280;46286;48.098;11.590;2023-03-26T14:12:37;94295.56;;;7.98;100.00
60433;BME280;46286;48.098;11.590;2023-03-26T14:15:21;94278.28;;;7.97;100.00
60433;BME280;46286;48.098;11.590;2023-03-26T14:35:18;94262.72;;;7.87;100.00
60433;BME280;46286;48.098;11.590;2023-03-26T14:49:00;94248.97;;;7.95;100.00
60433;BME280;46286;48.098;11.590;2023-03-26T14:54:19;94239.66;;;7.89;100.00
60433;BME280;46286;48.098;11.590;2023-03-26T15:05:44;94232.19;;;7.77;100.00
60433;BME280;46286;48.098;11.590;2023-03-26T15:11:18;94233.41;;;7.85;100.00
60433;BME280;46286;48.098;11.590;2023-03-26T15:22:42;94225.03;;;7.83;100.00
60433;BME280;46286;48.098;11.590;2023-03-26T15:33:17;94220.31;;;7.85;100.00
60433;BME280;46286;48.098;11.590;2023-03-26T15:38:43;94220.38;;;7.79;100.00
60433;BME280;46286;48.098;11.590;2023-03-26T15:41:24;94203.66;;;7.75;100.00
60433;BME280;46286;48.098;11.590;2023-03-26T15:46:31;94217.94;;;7.64;100.00
60433;BME280;46286;48.098;11.590;2023-03-26T15:49:21;94222.41;;;7.63;100.00
60433;BME280;46286;48.098;11.590;2023-03-26T15:52:15;94233.13;;;7.67;100.00
60433;BME280;46286;48.098;11.590;2023-03-26T15:54:49;94239.41;;;7.66;100.00
60433;BME280;46286;48.098;11.590;2023-03-26T15:57:25;94240.47;;;7.65;100.00
60433;BME280;46286;48.098;11.590;2023-03-26T16:00:09;94253.97;;;7.53;100.00
60433;BME280;46286;48.098;11.590;2023-03-26T16:02:45;94247.63;;;7.35;100.00
60433;BME280;46286;48.098;11.590;2023-03-26T16:08:17;94244.81;;;7.02;100.00
60433;BME280;46286;48.098;11.590;2023-03-26T16:10:51;94244.63;;;6.99;100.00
60433;BME280;46286;48.098;11.590;2023-03-26T16:13:35;94251.72;;;6.93;100.00
60433;BME280;46286;48.098;11.590;2023-03-26T16:18:34;94237.25;;;6.42;100.00
60433;BME280;46286;48.098;11.590;2023-03-26T16:23:55;94213.72;;;6.13;100.00
60433;BME280;46286;48.098;11.590;2023-03-26T16:29:22;94215.28;;;6.14;100.00
60433;BME280;46286;48.098;11.590;2023-03-26T16:43:17;94189.63;;;6.21;100.00
60433;BME280;46286;48.098;11.590;2023-03-26T16:46:09;94183.88;;;6.24;100.00
60433;BME280;46286;48.098;11.590;2023-03-26T16:48:50;94194.53;;;6.28;100.00
60433;BME280;46286;48.098;11.590;2023-03-26T16:57:24;94183.31;;;6.27;100.00
60433;BME280;46286;48.098;11.590;2023-03-26T17:02:55;94193.47;;;6.29;100.00
60433;BME280;46286;48.098;11.590;2023-03-26T17:05:35;94191.16;;;6.27;100.00
60433;BME280;46286;48.098;11.590;2023-03-26T17:08:08;94196.38;;;6.27;100.00
60433;BME280;46286;48.098;11.590;2023-03-26T17:10:44;94193.13;;;6.40;100.00
60433;BME280;46286;48.098;11.590;2023-03-26T17:22:02;94182.03;;;6.54;100.00
60433;BME280;46286;48.098;11.590;2023-03-26T17:24:41;94179.44;;;6.54;100.00
60433;BME280;46286;48.098;11.590;2023-03-26T17:33:10;94179.47;;;6.49;100.00
60433;BME280;46286;48.098;11.590;2023-03-26T17:35:44;94197.25;;;6.47;100.00
60433;BME280;46286;48.098;11.590;2023-03-26T17:46:11;94248.91;;;6.55;100.00
60433;BME280;46286;48.098;11.590;2023-03-26T17:48:43;94251.63;;;6.45;100.00
60433;BME280;46286;48.098;11.590;2023-03-26T17:51:39;94266.28;;;6.40;100.00
60433;BME280;46286;48.098;11.590;2023-03-26T17:54:13;94277.28;;;6.37;100.00
60433;BME280;46286;48.098;11.590;2023-03-26T17:56:42;94277.38;;;6.27;100.00
60433;BME280;46286;48.098;11.590;2023-03-26T17:59:18;94293.59;;;6.24;100.00
60433;BME280;46286;48.098;11.590;2023-03-26T18:01:50;94291.00;;;6.19;100.00
60433;BME280;46286;48.098;11.590;2023-03-26T18:04:28;94304.38;;;6.12;100.00
60433;BME280;46286;48.098;11.590;2023-03-26T18:13:09;94306.47;;;5.40;100.00
60433;BME280;46286;48.098;11.590;2023-03-26T18:18:36;94292.00;;;4.82;100.00
60433;BME280;46286;48.098;11.590;2023-03-26T18:21:06;94288.88;;;4.59;100.00